Bookmark and Share
Track history (hours):
 

Genmar Spyridon

Last reported at 2014-Mar-14 09:11 UTC. Time now 2014-Apr-19 22:14 UTC.
Position N 39°16' W 075°20'.
Warning: this ship's position is 36 days out of date.

Length 274 m; draft 9.1 m.

Type: Tanker. MMSI: 538001404.

NotesDate/timePositionNaut miles runAvg speedWind from/ knotsBaromVisibWave heightAir tempDewpointWater temp
2014-Mar-14 09:11N 39°16' W 075°20'913.8
2014-Mar-14 08:33N 39°22' W 075°28'1312.6
2014-Mar-14 07:33N 39°34' W 075°33'8 8.0
2014-Mar-14 06:33N 39°42' W 075°31'8 7.8
2014-Mar-14 05:33N 39°48' W 075°24'0 0.1
2014-Mar-14 04:33N 39°48' W 075°24'0 0.0
2014-Mar-14 03:15N 39°48' W 075°24'0 0.1
2014-Mar-13 22:33N 39°48' W 075°25'0 0.1
2014-Mar-13 21:09N 39°48' W 075°25'0 0.0
2014-Mar-13 20:33N 39°48' W 075°25'0 0.0
2014-Mar-13 19:33N 39°48' W 075°25'0 0.0
2014-Mar-13 18:27N 39°48' W 075°24'0 0.1
2014-Mar-13 17:15N 39°48' W 075°24'0 0.1
2014-Mar-13 16:30N 39°48' W 075°24'0 0.0
2014-Mar-13 15:15N 39°48' W 075°24'0 0.0
2014-Mar-13 13:33N 39°48' W 075°24'0 0.1
2014-Mar-13 11:33N 39°48' W 075°25'0 0.0
2014-Mar-13 06:33N 39°48' W 075°24'0 0.0
2014-Mar-13 05:33N 39°48' W 075°24'0 0.0
2014-Mar-13 04:15N 39°48' W 075°24'0 0.0
2014-Mar-13 03:27N 39°48' W 075°24'0 0.1
2014-Mar-13 02:24N 39°48' W 075°24'0 0.1
2014-Mar-13 01:27N 39°48' W 075°24'0 0.0
2014-Mar-11 23:18N 39°48' W 075°24'0 0.0
2014-Mar-11 09:20N 39°48' W 075°24'0 0.1
2014-Mar-11 04:05N 39°48' W 075°25'1 0.1
2014-Mar-10 19:14N 39°48' W 075°25'5 7.3
2014-Mar-10 18:31N 39°44' W 075°30'9 8.9
2014-Mar-10 17:33N 39°36' W 075°34'10 9.5
2014-Mar-10 16:33N 39°27' W 075°33'1111.0
2014-Mar-10 15:33N 39°18' W 075°23'21 6.5
2014-Mar-10 12:18N 38°59' W 075°12'0 0.0
2014-Mar-08 13:10N 38°59' W 075°12'0 0.0
2014-Mar-08 12:10N 38°59' W 075°12'0 0.0
2014-Mar-08 11:13N 38°59' W 075°12'0 0.0
2014-Mar-08 10:31N 38°59' W 075°12'  

Dump ship's entire track history

sailing weather and tide predictions

Genmar Spyridon — V7BY9 — position and weather